MEXICO,  CENTRAL AMERICA  &  WESTERN CARIBBEAN                  POINTING ANGLES for STAR CHOICE 

Copyright 2005 by MIKE KOHL / GLOBAL COMMUNICATIONS of Plain, Wisconsin
Tel  (608) 546-2523     Fax (608) 546-2157     EMail  globalcm@mhtc.net      Web Site:  www.global-cm.net

Azimuth headings are TRUE, not MAGNETIC.    Please apply local correction if using a compass.

107.3  = Anik F1R    Star Choice primary satellite   (English language core programming)
111.1
  = Anik F2   Star Choice secondary satellite    (French language, Ethnic and HDTV channels)

LNBF/Skew  settings for Anik F1 / 107.3 West.  First number is "Clock Position" of F-connector on LNBF,
      viewed from front of round offset dish.  Second number is the "Skew Setting" (adjusted on rear of antenna 
      mount of Elliptical dish);   Point directly at the 107.3 satellite, and use the center LNBF on an Elliptical dish.
   
Skew 111.1 = "Skew Setting" on rear of Elliptical Dual Satellite Dish, when aimed directly at 111.1 satellite.
                    Dual satellite operation of 107.3 and 111.1 should use these (111.1 or Anik F2) settings.  

A 6:00 LNBF setting corresponds with a 90-degree Skew setting.  5:00 LNBF = 120 Skew.   7:00 LNBF = 60 Skew.

Dual Satellite Reception using 75 cm Elliptical Antenna with center alignment on 111.1 satellite (Sat B).
Setup using these numbers will allow automatic reception of both Anik F2 at 111.1 and Anik F1 at 107.3 West. 

Please note that in areas of Southern Mexico and parts of Central America, the Skew or Polarity Settings of 107.3 versus 111.1 satellite may vary by as much as 10 degrees.  (Normal difference is 4 or 5 at most in central Canada).
We do not recommend use of an Elliptical antenna in situations such as this.  The new Anik F1R satellite, put into service on October 11, 2005, has greatly reduced coverage in regions south of Guadalajara, Mexico, where a well-tuned 75 cm Elliptical Antenna should work, although marginally during rainy weather.  Anywhere to the south should check locally to see what size of antenna is being successfully used, if at all.  

Anik F2, at 111.1 West, has been reported to work on a 75 cm elliptical antenna well into Guatemala.  Therefore it can be safely advised to use the STAR-CHOICE supplied 75-E down to Guadalajara for both satellite reception, and a larger separate antenna anywhere to the south for ANIK F1R...although at some point it will not work at all.
Those wanting the absolute best reception of both satellites should consider
two separate antennas of at least 90 cm (3 feet) in diameter for reception throughout central Mexico, and even larger antennas to the south.

Locations to the south of Guadalajara have been tagged with
*@*  which indicates possible reception problems on Anik F1R on antennas of 75 cm or smaller.  Check locally with others using the STAR CHOICE service for reception tips.  

DISCLAIMER:  We have carefully compiled a listing of pointing angles and skew/polarity settings, but cannot attest to their complete accuracy.   We will print corrections if users will kindly submit data from actual installations.   Due to the complexity of aligning multiple feed antennas, Global Communications always recommends the use of separate antennas for each satellite;  to provide more signal, easier alignment, and better reliability than using the often undersized multiple-satellite antennas normally supplied for use within Canada.   Please check with us prior to purchasing an antenna so that we can confirm that it is large enough for reliable reception in your area.

LNBF Clock Setting vs. Skew Setting
3:15   172.5     3:30  165    3:45  157.5     4:00  150     4:15  142.5     4:30  135     4:45  127.5     5:00  120     
5:15   112.5      5:30  105    5:45   97.5      6:00   90      6:15   82.5     6:30   75      6:45   67.5     7:00   60  

MEXICO
         
AGUASCALIENTES    AGS Lat-N   Long-W LNBF/Skew EL  &  AZ--107.3 EL    AZ    Skew--111.1
Aguascalientes 21.9   102.3 5:30   103 63.7  193.2 62.5  202.6   111
         
BAJA CALIFORNIA    B C Lat-N   Long-W LNBF/Skew EL  &  AZ--107.3 EL     AZ    Skew--111.1
Catavina 29.9   114.9 6:30   078 54.2  164.9 54.9  172.3   083
El Arco 28.1   113.3 6:15   079 56.6  167.3 57.1  175.2   086
Ensenada 31.9   116.6 6:30   075 51.5  162.8 52.4  169.7   081
Mexicali 32.7   115.5 6:30   077 51.0  165.0 51.7  171.9   083
Puertecitos 30.3   114.6 6:30   078 53.7  165.7 54.4  173.0   085
Rosarito 28.6   114.1 6.30   078 55.9  166.0 56.4  173.8   084
San Felipe 31.0   114.9 6:30   078 52.9  165.5 53.6  172.7   084
San Quintin 30.5   115.9 6:30   076 53.2  163.3 54.1  170.5   082
San Vicente 31.3   116.2 6:30   076 52.2  163.2 53.1  170.2   082
Tecate 32.5   116.6 6:30   076 50.8  163.0 51.7  169.7   081
Tijuana 32.5   117.0 6:30   075 50.7  162.3 51.6  169.1   081
         
BAJA CALIFORNIA SUR    BCS Lat-N   Long-W LNBF/Skew EL  &  AZ--107.3 EL     AZ    Skew--111.1
Cabo San Lucas 22.9   109.9 6:15   084 63.1  173.4 63.2  183.1   093
Ciudad Constitucion 25.1   111.7 6:15   081 60.2  169.7 60.6  178.6   089
Guerrero Negro 28.0   114.1 6:30   077 56.5  165.8 57.1  173.7   084
La Paz 24.2   110.3 6:15   083 61.5  172.7 61.7  181.9   092
Mulege 26.9   112.0 6:15   081 58.2  169.7 58.6  178.0   088
Puerto Escondido 25.8   111.3 6:15   082 59.5  170.8 59.9  179.5   090
Puerto Magdalena 24.6   112.1 6:15   080 60.7  168.5 61.2  177.6   083
Punta Abreojos 26.7   113.6 6:30   078 58.0  166.3 58.6  174.5   086
Rosarito 26.6   111.6 6:15   081 58.6  170.3 58.9  178.8   090
San Ignacio 27.3   112.9 6:15   079 57.5  167.9 58.1  176.1   086
Santa Rita 24.6   111.5 6:15   081 60.9  170.0 61.2  179.0   089
Santa Rosalia 27.3   112.3 6:15   080 57.6  169.2 58.1  177.4   088
Santo Domingo 25.5   112.0 6:15   080 59.7  169.2 60.2  177.9   088
         
CAMPECHE    CAMP Lat-N   Long-W LNBF/Skew EL  &  AZ--107.3 EL     AZ    Skew--111.1
Campeche 19.8   90.5 4:45   129 59.9  221.6  *@* 57.0  227.9   134
Ciudad del Carmen 18.6   91.8 4:45   128 61.9  220.9  *@* 59.0  227.6   135
Escarcega 18.6   90.7 4:45   130 61.1  223.1  *@* 58.1  229.4   136
         
CHIAPAS    CHIS Lat-N   Long-W LNBF/Skew EL  &  AZ--107.3 EL     AZ    Skew--111.1
San Cristobal de las Casas 17.8   94.5 4:45   125 64.5  216.5  *@* 61.7  224.2   132
Tapachula 14.9   92.2 4:30   134 65.3  226.3  *@* 62.1  233.0   141
Tonala 16.1   93.7 4:45   129 65.4  221.1  *@* 62.4  228.5   136
Tuxtla Gutierrez 16.7   93.1 4:45   129 64.5  221.2  *@* 61.5  228.3   136
         
CHIHUAHUA    CHIH Lat-N   Long-W LNBF/Skew EL  &  AZ--107.3 EL     AZ    Skew--111.1
Chihuahua 28.6   106.1 6:00   092 56.6  182.5 56.1  190.4   099
Ciudad Juarez 31.7   106.5 6:00   091 53.0  181.5 52.7  188.7   097
Cuauhtemoc 28.4   106.9 6:00   091 56.8  180.9 56.5  188.8   098
Delicias 28.2   105.5 6:00   093 57.0  183.9 56.5  191.8   100
Hidalgo del Parral 26.9   105.7 6:00   093 58.5  183.6 58.0  191.9   100
Jiminez 27.2   104.9 5:45   095 58.2  185.2 57.5  193.3   102
Nuevo Casas Grandes 30.4   107.9 6:00   089 54.5  178.8 54.4  186.3   095
Ojinaga 29.6   104.4 5:45   095  55.4  185.9 54.7  193.4   102
         
COAHUILA    COAH Lat-N   Long-W  LNBF/Skew EL  &  AZ--107.3 EL     AZ    Skew--111.1
Ciudad Acuna 29.3   100.9 5:30   101 55.1  192.9 54.0  200.2   108
Monclova 26.9   101.4 5:30   102 57.9  192.8 56.8  200.7   108
Nueva Rosita 28.0   101.2 5:30   101 56.6  192.9 55.6  200.4   108
Piedras Negras 28.7   100.5 5:30   102 55.7  193.9 54.5  201.3   109
Saltillo 25.4   101.0 5:30   103 59.5  194.4 58.2  202.5   110
Torreon 25.5   103.4 5:45   098 59.8  188.9 58.9  197.3   106
         
COLIMA    COL Lat-N   Long-W LNBF/Skew EL  &  AZ--107.3 EL     AZ    Skew--111.1
Colima 19.2   103.7 5:45   100 67.1  190.8  *@* 65.9  201.5   110
Manzanillo 19.0   104.3 5:45   099 67.4  189.0  *@* 66.3  200.0   108
Tecoman 18.9   103.9 5:45   100 67.5  190.4  *@* 66.3  201.3   110
         
DISTRICTO FEDERAL    D F Lat-N   Long-W LNBF/Skew EL  &  AZ--107.3 EL     AZ    Skew--111.1
Mexico City 19.4   99.1 5:15   112 65.4  203.3  *@* 63.5  212.5   121
Xochimilco 19.3   99.1 5:15   112 65.5  203.6  *@* 63.6  212.8   121
         
DURANGO    DGO Lat-N   Long-W  LNBF/Skew EL  &  AZ--107.3 EL     AZ    Skew--111.1
Durango 24.0   104.7 5:45   096 61.7  186.4 61.0  195.5   104
Gomez Palacio 25.6   103.5 5:45   098 59.7  188.7 58.8  197.1   105
         
GUANAJUATO    GTO Lat-N   Long-W LNBF/Skew EL  &  AZ--107.3 EL     AZ    Skew--111.1
Celaya 20.5   100.6 5:30   107 64.8  198.5  *@* 63.1  207.8   115
Guanajuato 21.0   101.3 5:30   105 64.4  196.5 63.0  205.8   114
Irapuato 20.7   101.5 5:30   104 64.9  196.1 63.4  205.7   114
Leon 21.2   101.7 5:30   104 64.4  195.2 63.0  204.6   113
Salamanca 20.6   101.2 5:30   106 64.9  196.9 63.4  206.4   115
         
GUERRERO    GRO Lat-N   Long-W LNBF/Skew EL  &  AZ--107.3 EL     AZ    Skew--111.1
Acapulco 16.8   99.9 5:15   113 68.5  204.1  *@* 66.4  214.3   123
Chilpancingo 17.5   99.5 5:15   113 67.5  204.4  *@* 65.5  214.2   122
Ciudad Altamirano 18.3   100.7 5:15   109 67.2  200.3  *@* 65.4  210.3   119
Iguala 18.4   99.5 5:15   112 66.6  203.5  *@* 64.6  213.0   121
Ixtapa 17.6   101.6 5:30   107 68.3  198.2  *@* 66.6  208.9   117
         
HIDALGO    HGO Lat-N   Long-W LNBF/Skew EL  &  AZ--107.3 EL     AZ    Skew--111.1
Pachuca 20.2   98.7 5:15   112 64.4  203.6  *@* 62.5  212.5   120
Tulancingo 20.1   98.4 5:15   113 64.3  204.6  *@* 62.3  213.3   120
         
JALISCO    JAL Lat-N   Long-W  LNBF/Skew EL  &  AZ--107.3 EL     AZ    Skew--111.1
Ameca 20.5   104.0 5:45   099 65.6  189.2  *@* 64.6  199.4   108
Autlan 19.8   104.4 5:45   097 66.6  188.6  *@* 65.6  199.2   107
Chapala 20.3   103.2 5:45   101 65.7  191.7  *@* 64.5  201.8   110
Ciudad Guzman 19.7   103.5 5:45   100 66.5  191.2  *@* 65.3  201.6   110
Guadalajara 20.7   103.3 5:45   100 65.4  191.1 64.2  201.1   110
Ocotlan 20.4   102.8 5:45   102 65.5  192.7  *@* 64.3  202.7   111
Puerto Vallarta 20.6   105.2 5:45   096 65.7  185.8 64.9  196.2   105
Sauhayo 20.1   102.7 5:30   102  65.9  193.2  *@* 64.6  203.3   112
Tomatlan 20.0   105.2 5:45   096 66.5  186.2  *@* 65.6  196.9   106
Zapopan 20.7   103.4 5:45   100 65.3  190.9 64.2  200.9   109
         
MEXICO    MEX Lat-N   Long-W LNBF/Skew EL  &  AZ--107.3 EL     AZ    Skew--111.1
Texcoco 19.5   98.9 5:15   112 65.2  203.9  *@* 63.2  212.9   121
Tlalnepantla 19.6   99.2 5:15   112 65.3  203.0  *@* 63.3  212.2   120
Toluca 19.3   99.7 5:15   111 65.7  202.1  *@* 63.9  211.5   119
         
MICHOACAN    MICH Lat-N   Long-W LNBF/Skew EL  &  AZ--107.3 EL     AZ    Skew--111.1
Apatzingan 19.1   102.4 5:30   104 66.9  194.7  *@* 65.5  205.1   114
Lazaro Cardenas 17.9   102.2 5:30   105 68.1  196.2  *@* 66.6  207.0   116
Morelia 19.7   101.1 5:30   107 65.8  197.8  *@* 64.2  207.6   116
Uruapan 19.4   102.0 5:30   105 66.4  195.7  *@* 64.9  205.8   114
Zamora 20.0   102.3 5:30   104 65.9  194.5  *@* 64.2  200.9   113
         
MORELOS    MOR Lat-N   Long-W  LNBF/Skew EL  &  AZ--107.3 EL     AZ    Skew--111.1
Cuautla 18.9   98.9 5:15   113 65.8  204.5  *@* 63.8  213.7   122
Cuernavaca 18.9   99.2 5:15   112 66.0  203.6  *@* 64.0  212.9   121
         
NAYARIT    NAY Lat-N   Long-W  LNBF/Skew EL  &  AZ--107.3 EL     AZ    Skew--111.1
Acaponeta 22.5   105.4 5:45   095 63.6  185.0 62.9  194.7   103
Tepic 21.5   104.9 5:45   096 64.7  186.5 63.8  196.5   105
Tuxpan 21.9   105.3 5:45   094 64.2  185.3 63.5  195.2   104
         
NUEVO LEON    N L Lat-N   Long-W LNBF/Skew EL  &  AZ--107.3 EL     AZ    Skew--111.1
Linares 24.8   99.6 5:30   106 59.7  197.9 58.2  205.9   113
Monterrey 25.7   100.3 5:30   104 59.0  195.8 57.7  203.7   111
Sabinas Hidalgo 26.5   100.2 5:30   104 58.0  195.6 56.7  203.3   111
         
OAXACA    OAX Lat-N   Long-W  LNBF/Skew EL  &  AZ--107.3 EL     AZ    Skew--111.1
Huajuapan 17.8   97.8 5:00   117 66.4  208.7  *@* 64.1  217.7   126
Juchitan 16.4   95.0 4:45   126 66.1  217.6  *@* 63.3  225.5   133
Oaxaca 17.0   96.7 5:00   121 66.6  212.5  *@* 64.0  221.2   129
Puerto Escondido 15.8   96.9 5:00   122 67.9  213.8  *@* 65.3  222.8   131
Salina Cruz 16.2   95.2 4:45   126 66.4  217.6  *@* 63.6  225.6   133
Tuxtepec 18.1   96.1 5:00   121 65.2  212.5  *@* 62.7  220.7   128
         
PUEBLA    PUE Lat-N   Long-W LNBF/Skew EL  &  AZ--107.3 EL     AZ    Skew--111.1
Atlixco 18.9   98.4 5:15   114 65.6  205.7  *@* 63.5  214.7   123
Puebla 19.0   98.2 5:15   115 65.3  206.2  *@* 63.2  215.1   122 
Tehuacan 18.4   97.4 5:00   117 65.5  208.9  *@* 63.2  217.6   125
         
QUERETARO    QRO Lat-N   Long-W LNBF/Skew EL  &  AZ--107.3 EL     AZ    Skew--111.1
Queretaro 20.6   100.4 5:30   108 64.6  199.0 62.9  208.2   116
         
QUINTANA ROO    Q ROO Lat-N   Long-W  LNBF/Skew EL  &  AZ--107.3 EL     AZ    Skew--111.1
Cancun 21.1   86.8 4:30   132 56.1  226.2  *@* 53.0  231.5   137
Chetumal 18.6   88.1 4:30   134 59.1  227.5  *@* 55.9  233.1   139
Cozumel 20.5   86.9 4:30   132 56.6  226.7  *@* 53.5  232.0   138
         
SAN LUIS POTOSI    SLP Lat-N   Long-W LNBF/Skew EL  &  AZ--107.3 EL     AZ    Skew--111.1
Ciudad Valles 22.0   99.0 5:15   110 62.6  201.3 60.8  209.8   117
Matehuala 23.6   100.6 5:30   104 61.3  196.2 59.9  204.7   113
San Luis Potosi 22.1   101.0 5:30   105 63.1  196.4 61.6  205.3   113
         
SINALOA    SIN Lat-N   Long-W LNBF/Skew EL  &  AZ--107.3 EL     AZ    Skew--111.1
Culiacan 24.5   107.7 6:00   089 61.3  179.1 61.1  188.2   097
Guamuchil 25.5   108.1 6:00   088 60.2  178.1 60.0  186.9   096
Los Mochis 25.8   109.0 6:00   087 59.8  176.1 59.7  184.8   094
Mazatlan 23.2   106.4 6:00   092 62.8  182.2 62.3  191.7   101
         
SONORA    SON Lat-N   Long-W LNBF/Skew EL  &  AZ--107.3 EL     AZ    Skew--111.1
Agua Prieta 31.3   109.5 6:00   086 53.4  175.7 53.5  183.0   093
Alamos 27.0   108.9 6:00   087 58.4  176.5 58.4  184.8   094
Caborca 30.7   112.1 6:00   088 53.8  170.6 54.2  177.9   088
Cananea 31.0   110.3 6:00   086 53.7  174.1 53.9  181.5   091
Ciudad Obregon 27.5   109.9 6:15   086 57.2  174.4 57.9  182.5   092
Guaymas 27.9   110.9 6:15   083 57.2  172.3 57.4  180.4   090
Hermosillo 32.5   115.0 6:30   078 51.3  165.9 51.9  172.8   084
Navojoa 27.1   109.5 6:15   086 58.3  175.2 58.3  183.6   093
Nogales 31.3   110.9 6:15   084 53.3  173.0 53.5  180.3   090
Puerto Penasco 31.3   113.5 6:15   080 52.9  168.1 53.4  175.3   086
San Luis Rio Colorado 32.5   114.8 6:30   078 51.3  166.2 52.0  173.1   084
Santa Ana 30.5   111.1 6:15   084 54.1  172.5 54.4  179.9   090
Sonoyta 31.9   112.8 6:15   081 52.4  169.6 52.8  176.7   087
         
TABASCO    TAB Lat-N   Long-W LNBF/Skew EL  &  AZ--107.3 EL     AZ    Skew--111.1
Cardenas 18.0   93.4 4:45   126 63.5  218.8  *@* 60.7  226.0   133
Jalapa 17.7   92.8 4:45   128 63.4  220.3  *@* 60.5  227.3   134
Villahermosa 18.0   92.9 4:45   127 63.2  219.7  *@* 60.3  226.8   134
         
TAMAULIPAS    TAMPS Lat-N   Long-W LNBF/Skew EL  &  AZ--107.3 EL     AZ    Skew--111.1
Ciudad Mante 22.7   99.0 5:15   109 61.8  200.8 60.0  209.1   117
Ciudad Victoria 23.7   99.1 5:30   107 60.7  199.6 59.1  207.8   115
Matamoros 25.9   97.5 5:15   109  57.8  201.6 56.1  209.0   116
Nuevo Laredo 27.5   99.5 5:30   105 56.7  196.5 55.4  203.9   111
Reynosa 26.1   98.3 5:30   108 57.9  199.8 56.3  207.3   114
San Fernando 24.8   98.2 5:15   109 59.2  200.9 57.5  208.6   116
Tampico 22.2   97.8 5:15   112 61.9  203.8 50.0  211.9   119
         
TLAXCALA    TLAX Lat-N   Long-W  LNBF/Skew EL  &  AZ--107.3 EL     AZ    Skew--111.1
Tlaxcala 19.3   98.2 5:15   114 65.1  205.7  *@* 63.0  214.6   122
         
VERACRUZ    VER Lat-N   Long-W LNBF/Skew EL  &  AZ--107.3 EL     AZ    Skew--111.1
Coatzacoalcos 18.1   94.4 4:45   124 64.1  216.3  *@* 61.4  223.9   131
Cordoba 18.9   96.9 5:00   118 64.9  209.5  *@* 62.5  217.9   126
Minatitlan 18.0   94.5 4:45   124 64.3  216.3  *@* 61.6  224.0   131
Orizaba 18.8   97.1 5:00   117 65.0  209.1  *@* 62.7  217.7   125
Poza Rica 20.5   97.5 5:15   114 63.4  206.3  *@* 61.4  214.7   122
Veracruz 19.2   96.1 5:00   119 64.1  211.0  *@* 61.7  219.1   127
Xalapa 19.5   96.9 5:00   117 64.2  208.7  *@* 61.9  217.1   125
         
YUCATAN    YUC Lat-N   Long-W  LNBF/Skew EL  &  AZ--107.3 EL     AZ    Skew--111.1
Merida 21.0   89.6 4:45   128 58.3  221.6 55.4  227.6   134
Tizimin 21.1   88.1 4:45   130 57.0  223.9 54.1  229.6   135
         
ZACATECAS    ZAC Lat-N   Long-W  LNBF/Skew EL  &  AZ--107.3 EL     AZ    Skew--111.1
Fresnillo 23.2   102.9 5:45   100 62.4  191.1 61.3  200.2   108
Zacatecas 22.8   102.6 5:45   101 62.8  192.0 61.6  201.1   109
         
CENTRAL AMERICA   *@*  ANIK F1R (107.3) signal not available in Central America
         
BELIZE Lat-N   Long-W LNBF/Skew EL  &  AZ--107.3 EL     AZ    Skew--111.1
Belize City 17.5   88.2 4:30   136 60.0  229.0 56.7  234.5   140
Belmopan 17.2   88.8 4:30   136 60.6  228.5 57.4  234.2   141
Punta Gorda 16.1   88.8 4:30   138 61.5  230.3 58.1  235.9   143
         
GUATEMALA Lat-N   Long-W  LNBF/Skew EL  &  AZ--107.3 EL     AZ    Skew--111.1
Coban 15.5   90.3 4:30   136 63.3  228.8 60.0  234.9   142
Guatemala City 14.6   90.5 4:30   137 64.1  230.0 60.7  236.1   143
Mazatenango 14.5   91.5 4:30   136 65.0  228.5 61.7  234.9   142
Puerto Barrios 15.7   88.6 4:15   139 61.6  231.3 58.2  236.8   144
Quezaltenango 14.8   91.5 4:30   136 64.8  227.9 61.4  234.3   142
         
HONDURAS Lat-N   Long-W  LNBF/Skew EL  &  AZ--107.3 EL     AZ    Skew--111.1
Juticalpa 14.7   86.2 4:15   144 60.1  236.6 56.5  241.3   148
La Ceiba 15.7   86.7 4:15   141 60.0  234.1 56.5  239.0   146
San Pedro Sula 15.4   88.0 4:15   140 61.3  232.7 57.8  238.0   145
Tegucigalpa 14.1   87.2 4:15   144 61.5  236.3 57.9  241.2   148
         
EL SALVADOR Lat-N   Long-W LNBF/Skew EL  &  AZ--107.3 EL     AZ    Skew--111.1
San Miguel 13.5   88.2 4:15   144 62.8  236.1 59.1  241.2   148
San Salvador 13.7   89.2 4:15   142 63.6  234.1 60.0  239.5   147
Santa Ana 14.0   89.5 4:15   141 63.7  233.0 60.1  238.6   146
         
NICARAGUA Lat-N   Long-W LNBF/Skew EL  &  AZ--107.3 EL     AZ    Skew--111.1
Bluefields 12.0   83.7 4:00   152 59.3  244.5 55.4  248.1   155
Chinandega 12.6   87.2 4:15   146 62.4  239.3 58.6  243.9   151
Leon 12.4   86.9 4:00   148 62.2  239.9 58.4  244.4   152
Managua 12.1   86.3 4:00   149 61.8  241.3 57.9  245.5   153
Matagalpa 12.9   86.0 4:00   148 61.0  240.3 57.3  244.6   152
          
COSTA RICA Lat-N   Long-W LNBF/Skew EL  &  AZ--107.3 EL     AZ    Skew--111.1
Liberia 10.6   85.4 4:00   153 61.7  245.3 57.7  249.0   157
Limon 10.0   83.0 3:45   157 59.5  248.9 55.4  252.0   159
Puntarenas 10.0   84.8 3:45   155 61.4  247.2 57.3  250.6   158
San Isidro 09.4   83.7 3:45   157 60.4  249.6 56.3  252.6   160
San Jose 09.9   84.1 3:45   156 60.6  248.1 56.6  251.3   158
         
PANAMA Lat-N   Long-W  LNBF/Skew EL  &  AZ--107.3 EL     AZ    Skew--111.1
Chitre 08.0   80.4 3:30   163 57.4  254.7 53.2  256.8   165
Colon 09.4   79.9 3:45   160 56.3  252.6 52.2  255.0   162
David 08.4   82.4 3:45   161 59.4  252.5 55.3  255.0   163
La Chorrera 08.9   79.8 3:45   161 56.4  253.5 52.3  255.8   163
La Palma 08.4   78.1 3:30   163 54.7  255.3 50.6  257.3   165
Panama City 09.0   79.5 3:45   161 56.1  253.5 51.9  255.8   163
Santiago 08.1   81.0 3:30   162 57.9  254.0 53.8  256.3   164
         
WESTERN CARIBBEAN        
  Lat-N   Long-W LNBF/Skew EL  &  AZ--107.3 EL     AZ    Skew--111.1
BERMUDA        
Hamilton 32.3   64.8 4:30   137 31.1  239.8 28.0  243.0   139
         
BAHAMAS        
Freeport 26.5   78.7 4:30   134 45.7  230.7 42.7  234.9   137
Nassau 25.1   77.4 4:30   137 45.6  233.7 42.4  237.6   140
Andros Town 24.7   77.8 4:30   136 46.2  233.5 43.0  237.5   140
Governor's Harbour 25.2   76.2 4:30   138 44.6  234.8 41.4  238.6   141
George Town 23.5   75.8 4:15   140 45.3  237.0 42.0  240.6   143
Cockburn Town 24.0   74.5 4:15   141 43.9  237.7 40.6  241.2   143
Clarence Town 23.1   75.0 4:15   141 44.9  238.2 41.5  241.7   144
Abraham's Bay 22.3   72.9 4:15   144 43.4  240.9 40.0  244.2   146
Matthew Town 20.9   73.7 4:15   145 44.9  241.7 41.3  245.0   148
         
TURKS & CAICOS ISLANDS        
Providenciales 21.8   72.3 4:15   145 43.2  242.1 39.7  245.2   147
Grand Turk 21.5   71.5 4:15   146 42.6  243.1 39.0  246.1   148
         
CUBA        
Pinar del Rio 22.4   83.7 4:30   134 52.6  228.9 49.5  233.7   138
Havana 23.1   82.4 4:30   135 51.0  229.8 47.9  234.4   138
Matanzas 23.0   81.6 4:30   136 50.5  230.9 47.3  235.3   139
Cardenas 23.0   81.2 4:30   136 50.2  231.4 47.0  235.8   140
Cienfuegos 22.2   80.5 4:30   138 50.1  233.1 46.9  237.4   141
Santa Clara 22.4   80.0 4:30   138 49.6  233.6 46.3  237.7   141
Camaguey 21.4   77.9 4:15   141 48.4  237.0 45.0  240.8   144
Holguin 20.9   76.2 4:15   143 47.3  239.3 43.8  242.9   146
Santiago de Cuba 20.0   75.8 4:15   145 47.4  240.8 43.8  244.2   148
Guantanamo 20.1   75.2 4:15   146 46.8  241.2 43.2  244.5   148
         
CAYMAN ISLANDS        
Grand Cayman 19.3   81.4 4:15   141 52.8  235.7 49.4  239.9   145
Little Cayman 19.7   80.0 4:15   142 51.4  236.8 47.9  240.8   145
         
JAMAICA        
Montego Bay 18.4   77.9 4:15   146 50.2  240.6 46.6  244.2   149
Kingston 18.0   76.8 4:00   147 49.4  242.3 45.7  245.6   150